createdAt,value
2022-09-13T00:01:11.998Z,3.90
2022-09-13T00:04:04.839Z,3.90
2022-09-13T00:06:34.452Z,4.30
2022-09-13T00:09:02.898Z,4.30
2022-09-13T00:11:32.365Z,3.83
2022-09-13T00:14:00.814Z,4.37
2022-09-13T00:16:30.662Z,4.00
2022-09-13T00:19:00.741Z,3.90
2022-09-13T00:21:29.062Z,4.07
2022-09-13T00:23:58.622Z,4.03
2022-09-13T00:26:29.025Z,4.10
2022-09-13T00:28:59.630Z,4.07
2022-09-13T00:31:29.809Z,3.97
2022-09-13T00:34:00.975Z,3.67
2022-09-13T00:36:29.533Z,3.87
2022-09-13T00:39:01.041Z,3.50
2022-09-13T00:41:29.245Z,4.40
2022-09-13T00:44:00.046Z,3.80
2022-09-13T00:46:36.010Z,3.93
2022-09-13T00:49:13.722Z,3.70
2022-09-13T00:51:46.500Z,4.23
2022-09-13T00:54:19.411Z,3.90
2022-09-13T00:56:52.866Z,3.70
2022-09-13T00:59:27.684Z,3.83
2022-09-13T01:01:58.739Z,4.30
2022-09-13T01:04:29.648Z,3.70
2022-09-13T01:07:02.466Z,3.93
2022-09-13T01:09:36.656Z,3.87
2022-09-13T01:12:14.706Z,3.77
2022-09-13T01:14:44.850Z,3.53
2022-09-13T01:17:13.421Z,3.77
2022-09-13T01:19:41.731Z,3.83
2022-09-13T01:22:52.449Z,3.87
2022-09-13T01:25:52.162Z,3.60
2022-09-13T01:28:42.468Z,3.50
2022-09-13T01:31:21.468Z,3.80
2022-09-13T01:34:18.066Z,3.77
2022-09-13T01:37:06.126Z,3.90
2022-09-13T01:39:59.974Z,3.77
2022-09-13T01:42:39.308Z,3.67
2022-09-13T01:45:23.326Z,4.13
2022-09-13T01:47:59.441Z,4.17
2022-09-13T01:50:40.320Z,3.90
2022-09-13T01:53:21.850Z,3.90
2022-09-13T01:55:56.609Z,4.30
2022-09-13T01:58:29.178Z,4.17
2022-09-13T02:01:08.825Z,4.87
2022-09-13T02:03:44.636Z,4.50
2022-09-13T02:06:23.545Z,4.80
2022-09-13T02:08:55.883Z,4.50
2022-09-13T02:11:25.282Z,6.00
2022-09-13T02:14:01.084Z,5.47
2022-09-13T02:16:35.085Z,5.20
2022-09-13T02:19:10.816Z,4.50
2022-09-13T02:21:42.627Z,4.43
2022-09-13T02:24:17.619Z,4.40
2022-09-13T02:26:49.374Z,4.73
2022-09-13T02:29:21.220Z,4.30
2022-09-13T02:31:55.798Z,5.13
2022-09-13T02:34:32.790Z,4.60
2022-09-13T02:37:04.099Z,5.10
2022-09-13T02:39:34.686Z,4.50
2022-09-13T02:42:12.584Z,5.10
2022-09-13T02:44:44.581Z,5.17
2022-09-13T02:47:32.331Z,5.30
2022-09-13T02:50:20.549Z,4.87
2022-09-13T02:52:55.162Z,4.53
2022-09-13T02:55:31.040Z,5.17
2022-09-13T02:58:05.951Z,4.70
2022-09-13T03:00:34.431Z,4.47
2022-09-13T03:03:08.118Z,4.40
2022-09-13T03:05:37.954Z,4.40
2022-09-13T03:08:07.541Z,4.00
2022-09-13T03:10:49.489Z,4.10
2022-09-13T03:14:16.763Z,4.20
2022-09-13T03:17:06.464Z,4.10
2022-09-13T03:19:49.766Z,4.50
2022-09-13T03:22:42.253Z,4.20
2022-09-13T03:25:22.494Z,4.60
2022-09-13T03:28:02.759Z,3.90
2022-09-13T03:30:35.307Z,4.83
2022-09-13T03:33:12.822Z,4.13
2022-09-13T03:35:45.982Z,4.27
2022-09-13T03:38:20.130Z,4.70
2022-09-13T03:40:50.781Z,4.50
2022-09-13T03:43:29.554Z,5.03
2022-09-13T03:46:01.221Z,5.00
2022-09-13T03:48:31.275Z,4.53
2022-09-13T03:50:59.528Z,4.90
2022-09-13T03:53:31.594Z,4.60
2022-09-13T03:55:59.736Z,4.37
2022-09-13T03:58:28.696Z,4.53
2022-09-13T04:00:57.455Z,4.73
2022-09-13T04:03:26.014Z,4.80
2022-09-13T04:05:54.186Z,4.33
2022-09-13T04:08:22.721Z,4.07
2022-09-13T04:10:53.073Z,4.57
2022-09-13T04:13:22.972Z,3.20
2022-09-13T04:15:51.271Z,3.13
2022-09-13T04:18:19.779Z,4.53
2022-09-13T04:20:55.093Z,4.73
2022-09-13T04:23:23.312Z,4.60
2022-09-13T04:25:53.396Z,4.43
2022-09-13T04:28:24.231Z,4.00
2022-09-13T04:30:52.463Z,4.17
2022-09-13T04:33:20.663Z,4.30
2022-09-13T04:35:48.804Z,4.17
2022-09-13T04:38:17.319Z,4.00
2022-09-13T04:40:45.453Z,4.20
2022-09-13T04:43:15.413Z,4.20
2022-09-13T04:45:43.609Z,4.47
2022-09-13T04:48:11.921Z,4.67
2022-09-13T04:50:40.070Z,4.23
2022-09-13T04:53:08.242Z,4.10
2022-09-13T04:55:36.808Z,4.60
2022-09-13T04:58:05.196Z,5.20
2022-09-13T05:00:34.904Z,4.47
2022-09-13T05:03:03.114Z,4.67
2022-09-13T05:05:32.521Z,4.63
2022-09-13T05:08:00.646Z,4.70
2022-09-13T05:10:28.788Z,4.53
2022-09-13T05:12:56.930Z,4.03
2022-09-13T05:15:25.065Z,4.37
2022-09-13T05:17:54.544Z,4.77
2022-09-13T05:20:22.725Z,4.17
2022-09-13T05:22:50.878Z,4.27
2022-09-13T05:25:21.131Z,4.37
2022-09-13T05:27:52.332Z,4.50
2022-09-13T05:30:20.734Z,4.63
2022-09-13T05:32:48.914Z,4.50
2022-09-13T05:35:18.389Z,4.97
2022-09-13T05:37:46.511Z,4.10
2022-09-13T05:40:14.802Z,4.10
2022-09-13T05:42:42.951Z,4.53
2022-09-13T05:45:11.455Z,4.10
2022-09-13T05:47:39.785Z,4.47
2022-09-13T05:50:15.418Z,4.57
2022-09-13T05:52:54.771Z,4.50
2022-09-13T05:55:23.429Z,4.47
2022-09-13T05:57:51.847Z,4.73
2022-09-13T06:00:20.047Z,4.20
2022-09-13T06:02:48.223Z,4.60
2022-09-13T06:05:16.509Z,3.83
2022-09-13T06:07:44.731Z,4.63
2022-09-13T06:10:14.290Z,4.13
2022-09-13T06:12:42.504Z,4.30
2022-09-13T06:15:11.443Z,4.43
2022-09-13T06:17:39.711Z,4.10
2022-09-13T06:20:10.588Z,4.53
2022-09-13T06:22:39.175Z,4.50
2022-09-13T06:25:09.460Z,4.33
2022-09-13T06:27:38.952Z,4.30
2022-09-13T06:30:12.003Z,4.57
2022-09-13T06:32:40.954Z,4.97
2022-09-13T06:35:10.297Z,4.80
2022-09-13T06:37:38.938Z,4.33
2022-09-13T06:40:08.042Z,5.33
2022-09-13T06:42:37.817Z,4.77
2022-09-13T06:45:07.654Z,5.50
2022-09-13T06:47:35.800Z,5.20
2022-09-13T06:50:04.001Z,4.90
2022-09-13T06:52:32.641Z,5.00
2022-09-13T06:55:00.855Z,4.57
2022-09-13T06:57:32.020Z,5.23
2022-09-13T07:00:04.527Z,4.57
2022-09-13T07:02:32.752Z,5.00
2022-09-13T07:05:00.944Z,5.53
2022-09-13T07:07:29.080Z,5.13
2022-09-13T07:09:57.300Z,5.20
2022-09-13T07:12:25.396Z,5.70
2022-09-13T07:14:53.774Z,5.23
2022-09-13T07:17:23.279Z,4.90
2022-09-13T07:19:51.438Z,4.73
2022-09-13T07:22:19.570Z,3.97
2022-09-13T07:24:47.706Z,4.70
2022-09-13T07:27:16.791Z,3.97
2022-09-13T07:29:45.055Z,4.05
2022-09-13T07:32:13.222Z,3.35
2022-09-13T07:34:45.606Z,3.17
2022-09-13T07:37:13.794Z,3.00
2022-09-13T07:39:41.978Z,3.17
2022-09-13T07:42:10.114Z,2.72
2022-09-13T07:44:39.893Z,3.38
2022-09-13T07:47:08.221Z,3.00
2022-09-13T07:49:36.387Z,3.22
2022-09-13T07:52:06.005Z,3.13
2022-09-13T07:54:35.509Z,2.50
2022-09-13T07:57:04.056Z,2.78
2022-09-13T07:59:32.214Z,2.60
2022-09-13T08:02:00.382Z,2.55
2022-09-13T08:04:29.937Z,2.95
2022-09-13T08:07:00.541Z,2.80
2022-09-13T08:09:30.102Z,3.00
2022-09-13T08:11:58.267Z,3.20
2022-09-13T08:14:26.415Z,3.22
2022-09-13T08:16:57.775Z,2.90
2022-09-13T08:19:26.045Z,2.80
2022-09-13T08:21:54.239Z,3.05
2022-09-13T08:24:23.664Z,3.08
2022-09-13T08:26:56.292Z,2.60
2022-09-13T08:29:25.338Z,2.30
2022-09-13T08:31:53.718Z,2.58
2022-09-13T08:34:22.224Z,2.40
2022-09-13T08:36:50.364Z,2.40
2022-09-13T08:39:18.602Z,2.30
2022-09-13T08:42:07.062Z,2.28
2022-09-13T08:44:37.586Z,2.50
2022-09-13T08:47:28.409Z,2.53
2022-09-13T08:50:07.631Z,2.42
2022-09-13T08:52:45.510Z,2.33
2022-09-13T08:55:26.646Z,2.70
2022-09-13T08:58:02.539Z,2.35
2022-09-13T09:00:38.254Z,2.47
2022-09-13T09:03:23.249Z,2.63
2022-09-13T09:05:54.311Z,2.67
2022-09-13T09:08:33.911Z,2.40
2022-09-13T09:11:07.616Z,2.45
2022-09-13T09:13:46.534Z,2.58
2022-09-13T09:16:29.762Z,2.25
2022-09-13T09:19:01.108Z,3.00
2022-09-13T09:21:29.371Z,2.40
2022-09-13T09:23:59.322Z,2.55
2022-09-13T09:26:31.889Z,2.10
2022-09-13T09:29:20.683Z,2.10
2022-09-13T09:32:09.161Z,2.45
2022-09-13T09:34:52.403Z,2.55
2022-09-13T09:37:24.938Z,2.47
2022-09-13T09:39:54.625Z,2.45
2022-09-13T09:42:28.279Z,3.15
2022-09-13T09:45:03.746Z,2.83
2022-09-13T09:47:42.771Z,2.90
2022-09-13T09:50:15.068Z,2.50
2022-09-13T09:52:50.703Z,3.40
2022-09-13T09:55:28.517Z,3.35
2022-09-13T09:58:00.492Z,3.65
2022-09-13T10:00:34.117Z,3.42
2022-09-13T10:03:09.051Z,3.97
2022-09-13T10:05:37.686Z,3.83
2022-09-13T10:08:08.376Z,3.90
2022-09-13T10:10:42.630Z,3.67
2022-09-13T10:13:17.461Z,3.25
2022-09-13T10:15:58.143Z,3.95
2022-09-13T10:18:45.095Z,3.00
2022-09-13T10:21:25.739Z,3.47
2022-09-13T10:24:17.429Z,3.20
2022-09-13T10:26:45.770Z,3.42
2022-09-13T10:29:17.779Z,3.10
2022-09-13T10:31:53.391Z,3.00
2022-09-13T10:34:24.489Z,3.35
2022-09-13T10:36:58.131Z,2.80
2022-09-13T10:39:29.633Z,2.30
2022-09-13T10:42:02.461Z,2.50
2022-09-13T10:44:38.201Z,2.60
2022-09-13T10:47:13.311Z,2.10
2022-09-13T10:49:48.108Z,2.17
2022-09-13T10:52:44.459Z,2.40
2022-09-13T10:55:36.395Z,2.10
2022-09-13T10:58:18.207Z,1.80
2022-09-13T11:01:14.618Z,2.00
2022-09-13T11:04:37.607Z,1.80
2022-09-13T11:07:36.708Z,1.58
2022-09-13T11:10:15.026Z,1.75
2022-09-13T11:12:53.362Z,1.80
2022-09-13T11:15:39.661Z,1.70
2022-09-13T11:18:51.347Z,1.70
2022-09-13T11:21:36.462Z,1.70
2022-09-13T11:24:33.226Z,1.60
2022-09-13T11:27:07.590Z,1.67
2022-09-13T11:30:11.797Z,1.67
2022-09-13T11:32:59.989Z,1.70
2022-09-13T11:35:50.550Z,1.63
2022-09-13T11:38:36.892Z,1.25
2022-09-13T11:41:19.992Z,1.70
2022-09-13T11:44:08.323Z,1.50
2022-09-13T11:46:44.140Z,1.42
2022-09-13T11:49:49.490Z,1.33
2022-09-13T11:52:27.720Z,1.67
2022-09-13T11:55:12.139Z,1.50
2022-09-13T11:57:45.447Z,1.33
2022-09-13T12:00:22.707Z,1.35
2022-09-13T12:03:01.293Z,1.30
2022-09-13T12:06:02.920Z,1.77
2022-09-13T12:08:34.288Z,1.30
2022-09-13T12:11:12.851Z,1.40
2022-09-13T12:13:49.418Z,1.40
2022-09-13T12:16:25.013Z,1.40
2022-09-13T12:18:57.372Z,1.20
2022-09-13T12:21:31.052Z,1.42
2022-09-13T12:24:06.721Z,1.40
2022-09-13T12:26:43.077Z,1.23
2022-09-13T12:29:17.939Z,1.30
2022-09-13T12:31:46.160Z,1.50
2022-09-13T12:34:23.857Z,1.52
2022-09-13T12:37:27.809Z,1.52
2022-09-13T12:40:20.356Z,1.30
2022-09-13T12:43:19.766Z,1.10
2022-09-13T12:46:23.343Z,1.15
2022-09-13T12:49:27.680Z,1.20
2022-09-13T12:52:15.599Z,0.93
2022-09-13T12:55:45.347Z,1.15
2022-09-13T12:58:31.294Z,1.00
2022-09-13T13:01:19.350Z,1.17
2022-09-13T13:03:54.533Z,1.15
2022-09-13T13:06:33.432Z,1.05
2022-09-13T13:09:06.613Z,1.00
2022-09-13T13:11:46.081Z,1.10
2022-09-13T13:14:53.686Z,1.02
2022-09-13T13:17:47.204Z,1.30
2022-09-13T13:21:04.356Z,1.10
2022-09-13T13:23:35.371Z,1.20
2022-09-13T13:26:09.277Z,1.10
2022-09-13T13:29:18.454Z,1.20
2022-09-13T13:32:14.612Z,1.20
2022-09-13T13:34:46.930Z,1.30
2022-09-13T13:37:42.284Z,1.02
2022-09-13T13:40:26.968Z,1.10
2022-09-13T13:43:30.816Z,1.30
2022-09-13T13:46:33.570Z,1.40
2022-09-13T13:49:46.494Z,1.00
2022-09-13T13:52:39.701Z,1.30
2022-09-13T13:55:31.447Z,1.30
2022-09-13T13:58:03.370Z,1.40
2022-09-13T14:00:34.554Z,1.10
2022-09-13T14:03:17.799Z,1.40
2022-09-13T14:05:55.950Z,1.13
2022-09-13T14:08:43.891Z,1.40
2022-09-13T14:11:26.331Z,1.40
2022-09-13T14:14:11.996Z,1.40
2022-09-13T14:16:57.507Z,1.30
2022-09-13T14:19:28.358Z,1.30
2022-09-13T14:22:14.329Z,1.40
2022-09-13T14:24:46.433Z,1.30
2022-09-13T14:27:21.824Z,1.45
2022-09-13T14:29:53.127Z,1.70
2022-09-13T14:32:24.278Z,1.67
2022-09-13T14:34:58.342Z,1.80
2022-09-13T14:37:31.600Z,1.42
2022-09-13T14:40:03.251Z,1.38
2022-09-13T14:42:41.447Z,1.50
2022-09-13T14:45:15.577Z,1.60
2022-09-13T14:47:54.002Z,1.48
2022-09-13T14:50:29.732Z,1.50
2022-09-13T14:53:02.570Z,1.50
2022-09-13T14:55:34.466Z,1.70
2022-09-13T14:58:06.669Z,1.25
2022-09-13T15:00:39.332Z,1.40
2022-09-13T15:03:16.918Z,1.30
2022-09-13T15:05:53.970Z,1.48
2022-09-13T15:08:49.555Z,1.27
2022-09-13T15:11:29.680Z,1.40
2022-09-13T15:14:27.848Z,1.55
2022-09-13T15:17:01.479Z,1.40
2022-09-13T15:19:36.761Z,1.23
2022-09-13T15:22:19.073Z,1.40
2022-09-13T15:24:52.579Z,1.40
2022-09-13T15:27:29.842Z,1.40
2022-09-13T15:30:01.252Z,1.50
2022-09-13T15:32:35.692Z,1.23
2022-09-13T15:35:03.923Z,1.25
2022-09-13T15:37:36.267Z,1.40
2022-09-13T15:40:17.541Z,1.40
2022-09-13T15:42:50.268Z,1.25
2022-09-13T15:45:20.471Z,1.45
2022-09-13T15:47:50.560Z,1.30
2022-09-13T15:50:28.264Z,1.52
2022-09-13T15:52:56.991Z,1.30
2022-09-13T15:55:27.872Z,1.35
2022-09-13T15:57:56.561Z,1.40
2022-09-13T16:00:27.103Z,1.35
2022-09-13T16:02:55.317Z,1.50
2022-09-13T16:05:23.945Z,1.13
2022-09-13T16:07:54.034Z,1.35
2022-09-13T16:10:24.173Z,1.40
2022-09-13T16:12:54.788Z,1.27
2022-09-13T16:15:22.938Z,1.77
2022-09-13T16:17:51.025Z,1.63
2022-09-13T16:20:19.645Z,1.75
2022-09-13T16:22:48.347Z,1.80
2022-09-13T16:25:17.337Z,1.30
2022-09-13T16:27:45.756Z,1.42
2022-09-13T16:30:18.968Z,1.30
2022-09-13T16:32:47.381Z,1.33
2022-09-13T16:35:17.042Z,1.90
2022-09-13T16:37:46.322Z,1.67
2022-09-13T16:40:14.554Z,1.40
2022-09-13T16:42:42.742Z,1.65
2022-09-13T16:45:11.906Z,1.30
2022-09-13T16:47:42.351Z,1.30
2022-09-13T16:50:11.637Z,1.33
2022-09-13T16:52:39.886Z,1.23
2022-09-13T16:55:09.657Z,1.55
2022-09-13T16:57:38.526Z,1.70
2022-09-13T17:00:11.415Z,1.30
2022-09-13T17:02:41.743Z,1.65
2022-09-13T17:05:11.171Z,1.50
2022-09-13T17:07:39.595Z,1.80
2022-09-13T17:10:10.122Z,1.50
2022-09-13T17:12:38.285Z,1.60
2022-09-13T17:15:08.131Z,1.50
2022-09-13T17:17:37.025Z,1.52
2022-09-13T17:20:11.973Z,1.40
2022-09-13T17:22:41.831Z,1.55
2022-09-13T17:25:13.663Z,1.42
2022-09-13T17:27:42.139Z,1.50
2022-09-13T17:30:12.508Z,1.70
2022-09-13T17:32:41.049Z,1.70
2022-09-13T17:35:11.819Z,1.55
2022-09-13T17:37:39.974Z,1.50
2022-09-13T17:40:09.258Z,1.50
2022-09-13T17:42:37.483Z,1.45
2022-09-13T17:45:06.784Z,1.40
2022-09-13T17:47:35.032Z,1.50
2022-09-13T17:50:03.180Z,1.50
2022-09-13T17:52:34.931Z,1.20
2022-09-13T17:55:03.584Z,1.60
2022-09-13T17:57:32.214Z,1.58
2022-09-13T18:00:00.618Z,1.60
2022-09-13T18:02:29.544Z,1.63
2022-09-13T18:04:58.387Z,1.75
2022-09-13T18:07:28.577Z,1.67
2022-09-13T18:09:58.070Z,1.50
2022-09-13T18:12:26.314Z,1.50
2022-09-13T18:14:54.489Z,1.60
2022-09-13T18:17:23.236Z,1.80
2022-09-13T18:19:51.385Z,1.85
2022-09-13T18:22:19.517Z,1.60
2022-09-13T18:24:47.669Z,1.60
2022-09-13T18:27:17.174Z,1.83
2022-09-13T18:29:45.329Z,1.77
2022-09-13T18:32:13.513Z,1.85
2022-09-13T18:34:43.791Z,1.60
2022-09-13T18:37:11.969Z,1.60
2022-09-13T18:39:40.502Z,1.80
2022-09-13T18:42:08.763Z,1.75
2022-09-13T18:44:38.223Z,1.98
2022-09-13T18:47:08.605Z,1.92
2022-09-13T18:49:37.357Z,1.77
2022-09-13T18:52:06.677Z,1.75
2022-09-13T18:54:34.859Z,2.30
2022-09-13T18:57:03.018Z,2.20
2022-09-13T18:59:32.195Z,1.58
2022-09-13T19:02:01.860Z,2.05
2022-09-13T19:04:31.930Z,1.90
2022-09-13T19:07:02.349Z,1.90
2022-09-13T19:09:30.435Z,2.03
2022-09-13T19:11:58.613Z,2.00
2022-09-13T19:14:29.089Z,1.90
2022-09-13T19:17:00.489Z,2.10
2022-09-13T19:19:32.238Z,1.95
2022-09-13T19:22:00.476Z,1.70
2022-09-13T19:24:29.119Z,1.67
2022-09-13T19:26:57.317Z,1.70
2022-09-13T19:29:26.762Z,2.25
2022-09-13T19:31:55.960Z,2.00
2022-09-13T19:34:24.790Z,1.90
2022-09-13T19:36:57.964Z,1.95
2022-09-13T19:39:29.841Z,1.90
2022-09-13T19:41:59.682Z,1.90
2022-09-13T19:44:28.230Z,1.95
2022-09-13T19:47:26.907Z,1.50
2022-09-13T19:49:44.581Z,1.80
2022-09-13T19:52:14.140Z,2.50
2022-09-13T19:54:42.298Z,2.42
2022-09-13T19:57:10.536Z,1.95
2022-09-13T19:59:38.673Z,2.08
2022-09-13T20:02:07.170Z,1.80
2022-09-13T20:04:35.687Z,1.90
2022-09-13T20:07:04.008Z,1.88
2022-09-13T20:09:33.561Z,1.73
2022-09-13T20:12:01.686Z,2.10
2022-09-13T20:14:29.926Z,1.90
2022-09-13T20:16:58.848Z,2.00
2022-09-13T20:19:41.489Z,2.35
2022-09-13T20:22:11.007Z,2.03
2022-09-13T20:24:40.547Z,2.15
2022-09-13T20:27:09.594Z,2.63
2022-09-13T20:29:37.897Z,2.15
2022-09-13T20:32:06.262Z,2.20
2022-09-13T20:34:35.219Z,1.90
2022-09-13T20:37:03.415Z,2.80
2022-09-13T20:39:31.674Z,2.15
2022-09-13T20:42:01.226Z,2.30
2022-09-13T20:44:29.426Z,2.70
2022-09-13T20:46:57.593Z,2.72
2022-09-13T20:49:26.334Z,2.17
2022-09-13T20:51:54.487Z,2.08
2022-09-13T20:54:22.623Z,1.80
2022-09-13T20:56:50.915Z,2.45
2022-09-13T20:59:21.163Z,2.70
2022-09-13T21:01:49.771Z,2.97
2022-09-13T21:04:18.348Z,3.35
2022-09-13T21:07:00.460Z,2.28
2022-09-13T21:09:28.887Z,2.65
2022-09-13T21:11:57.204Z,2.58
2022-09-13T21:14:27.073Z,2.67
2022-09-13T21:16:56.060Z,2.47
2022-09-13T21:19:24.824Z,2.50
2022-09-13T21:21:53.666Z,3.05
2022-09-13T21:24:22.267Z,2.22
2022-09-13T21:26:50.393Z,2.67
2022-09-13T21:29:18.499Z,2.55
2022-09-13T21:31:47.969Z,2.50
2022-09-13T21:34:18.602Z,2.80
2022-09-13T21:36:47.611Z,2.22
2022-09-13T21:39:18.549Z,2.20
2022-09-13T21:41:47.548Z,2.58
2022-09-13T21:44:16.017Z,2.80
2022-09-13T21:46:46.466Z,2.58
2022-09-13T21:49:16.761Z,2.22
2022-09-13T21:51:47.568Z,2.50
2022-09-13T21:54:18.136Z,2.55
2022-09-13T21:56:51.584Z,2.40
2022-09-13T21:59:22.182Z,2.33
2022-09-13T22:01:52.741Z,2.00
2022-09-13T22:04:30.246Z,2.25
2022-09-13T22:07:03.368Z,2.25
2022-09-13T22:09:31.492Z,2.25
2022-09-13T22:12:00.615Z,2.42
2022-09-13T22:14:28.852Z,2.70
2022-09-13T22:16:57.488Z,2.42
2022-09-13T22:19:31.583Z,2.30
2022-09-13T22:22:01.310Z,2.30
2022-09-13T22:24:32.082Z,2.05
2022-09-13T22:27:00.962Z,2.35
2022-09-13T22:29:29.853Z,2.28
2022-09-13T22:31:58.015Z,2.40
2022-09-13T22:34:30.787Z,2.10
2022-09-13T22:37:00.473Z,2.33
2022-09-13T22:39:54.312Z,2.30
2022-09-13T22:42:22.455Z,2.40
2022-09-13T22:44:50.590Z,2.30
2022-09-13T22:47:19.261Z,2.50
2022-09-13T22:49:47.417Z,2.67
2022-09-13T22:52:16.882Z,2.50
2022-09-13T22:54:45.973Z,2.72
2022-09-13T22:57:14.142Z,2.40
2022-09-13T22:59:42.307Z,2.85
2022-09-13T23:02:10.765Z,2.63
2022-09-13T23:04:39.002Z,2.47
2022-09-13T23:07:07.255Z,2.78
2022-09-13T23:09:36.781Z,2.38
2022-09-13T23:12:05.843Z,2.60
2022-09-13T23:14:33.953Z,2.10
2022-09-13T23:17:02.185Z,2.47
2022-09-13T23:19:30.367Z,2.40
2022-09-13T23:21:58.497Z,2.60
2022-09-13T23:24:26.655Z,2.33
2022-09-13T23:26:57.228Z,2.17
2022-09-13T23:29:25.441Z,2.63
2022-09-13T23:31:53.919Z,2.40
2022-09-13T23:34:22.936Z,2.45
2022-09-13T23:36:52.075Z,2.40
2022-09-13T23:39:22.896Z,2.20
2022-09-13T23:41:52.124Z,2.67
2022-09-13T23:44:21.640Z,2.60
2022-09-13T23:46:50.079Z,2.90
2022-09-13T23:49:18.546Z,2.80
2022-09-13T23:51:46.699Z,3.00
2022-09-13T23:54:15.407Z,2.92
2022-09-13T23:56:43.857Z,3.15
2022-09-13T23:59:14.052Z,2.60
